sensor_id;sensor_type;location;lat;lon;timestamp;P1;durP1;ratioP1;P2;durP2;ratioP2
64887;SDS011;51386;53.082;8.816;2023-03-14T00:01:38;6.50;;;2.80;;
64887;SDS011;51386;53.082;8.816;2023-03-14T00:04:05;3.53;;;2.83;;
64887;SDS011;51386;53.082;8.816;2023-03-14T00:06:32;5.67;;;3.10;;
64887;SDS011;51386;53.082;8.816;2023-03-14T00:09:00;4.03;;;2.73;;
64887;SDS011;51386;53.082;8.816;2023-03-14T00:11:27;6.87;;;3.20;;
64887;SDS011;51386;53.082;8.816;2023-03-14T00:13:55;7.77;;;2.80;;
64887;SDS011;51386;53.082;8.816;2023-03-14T00:16:23;5.40;;;3.40;;
64887;SDS011;51386;53.082;8.816;2023-03-14T00:18:51;6.10;;;2.80;;
64887;SDS011;51386;53.082;8.816;2023-03-14T00:21:18;5.20;;;3.07;;
64887;SDS011;51386;53.082;8.816;2023-03-14T00:23:45;4.60;;;2.77;;
64887;SDS011;51386;53.082;8.816;2023-03-14T00:26:13;5.00;;;3.10;;
64887;SDS011;51386;53.082;8.816;2023-03-14T00:28:42;4.80;;;2.80;;
64887;SDS011;51386;53.082;8.816;2023-03-14T00:31:11;6.40;;;3.10;;
64887;SDS011;51386;53.082;8.816;2023-03-14T00:33:41;6.50;;;3.10;;
64887;SDS011;51386;53.082;8.816;2023-03-14T00:36:11;10.90;;;3.40;;
64887;SDS011;51386;53.082;8.816;2023-03-14T00:38:41;5.80;;;3.23;;
64887;SDS011;51386;53.082;8.816;2023-03-14T00:41:12;8.27;;;3.30;;
64887;SDS011;51386;53.082;8.816;2023-03-14T00:43:40;5.70;;;3.30;;
64887;SDS011;51386;53.082;8.816;2023-03-14T00:46:07;4.97;;;3.07;;
64887;SDS011;51386;53.082;8.816;2023-03-14T00:48:35;5.43;;;3.33;;
64887;SDS011;51386;53.082;8.816;2023-03-14T00:51:02;10.60;;;3.27;;
64887;SDS011;51386;53.082;8.816;2023-03-14T00:53:32;5.30;;;2.80;;
64887;SDS011;51386;53.082;8.816;2023-03-14T00:56:03;5.30;;;3.10;;
64887;SDS011;51386;53.082;8.816;2023-03-14T00:58:32;7.80;;;3.57;;
64887;SDS011;51386;53.082;8.816;2023-03-14T01:01:04;6.00;;;3.00;;
64887;SDS011;51386;53.082;8.816;2023-03-14T01:03:32;6.03;;;3.17;;
64887;SDS011;51386;53.082;8.816;2023-03-14T01:06:06;6.33;;;3.20;;
64887;SDS011;51386;53.082;8.816;2023-03-14T01:08:37;4.63;;;3.30;;
64887;SDS011;51386;53.082;8.816;2023-03-14T01:11:05;6.07;;;3.67;;
64887;SDS011;51386;53.082;8.816;2023-03-14T01:13:33;7.60;;;4.03;;
64887;SDS011;51386;53.082;8.816;2023-03-14T01:16:02;8.60;;;4.13;;
64887;SDS011;51386;53.082;8.816;2023-03-14T01:18:31;8.00;;;4.30;;
64887;SDS011;51386;53.082;8.816;2023-03-14T01:20:59;5.63;;;4.37;;
64887;SDS011;51386;53.082;8.816;2023-03-14T01:23:26;6.97;;;4.40;;
64887;SDS011;51386;53.082;8.816;2023-03-14T01:25:55;7.23;;;3.80;;
64887;SDS011;51386;53.082;8.816;2023-03-14T01:28:21;7.60;;;3.93;;
64887;SDS011;51386;53.082;8.816;2023-03-14T01:30:48;6.20;;;4.27;;
64887;SDS011;51386;53.082;8.816;2023-03-14T01:33:15;6.43;;;4.33;;
64887;SDS011;51386;53.082;8.816;2023-03-14T01:35:42;7.13;;;4.93;;
64887;SDS011;51386;53.082;8.816;2023-03-14T01:38:09;6.57;;;4.57;;
64887;SDS011;51386;53.082;8.816;2023-03-14T01:40:41;7.33;;;4.20;;
64887;SDS011;51386;53.082;8.816;2023-03-14T01:43:14;6.33;;;4.17;;
64887;SDS011;51386;53.082;8.816;2023-03-14T01:48:59;7.30;;;4.57;;
64887;SDS011;51386;53.082;8.816;2023-03-14T01:51:34;7.53;;;4.27;;
64887;SDS011;51386;53.082;8.816;2023-03-14T01:54:12;3.70;;;3.33;;
64887;SDS011;51386;53.082;8.816;2023-03-14T01:56:45;5.93;;;4.23;;
64887;SDS011;51386;53.082;8.816;2023-03-14T01:59:20;6.83;;;4.40;;
64887;SDS011;51386;53.082;8.816;2023-03-14T02:01:47;8.43;;;4.57;;
64887;SDS011;51386;53.082;8.816;2023-03-14T02:04:18;6.63;;;4.40;;
64887;SDS011;51386;53.082;8.816;2023-03-14T02:06:48;4.60;;;3.87;;
64887;SDS011;51386;53.082;8.816;2023-03-14T02:09:22;8.23;;;4.63;;
64887;SDS011;51386;53.082;8.816;2023-03-14T02:11:49;8.03;;;4.13;;
64887;SDS011;51386;53.082;8.816;2023-03-14T02:14:23;6.67;;;4.27;;
64887;SDS011;51386;53.082;8.816;2023-03-14T02:16:57;6.57;;;3.80;;
64887;SDS011;51386;53.082;8.816;2023-03-14T02:19:28;6.87;;;4.17;;
64887;SDS011;51386;53.082;8.816;2023-03-14T02:22:14;8.23;;;4.50;;
64887;SDS011;51386;53.082;8.816;2023-03-14T02:24:43;7.47;;;4.70;;
64887;SDS011;51386;53.082;8.816;2023-03-14T02:27:22;8.17;;;3.93;;
64887;SDS011;51386;53.082;8.816;2023-03-14T02:29:50;7.63;;;4.30;;
64887;SDS011;51386;53.082;8.816;2023-03-14T02:32:21;6.00;;;3.87;;
64887;SDS011;51386;53.082;8.816;2023-03-14T02:34:51;5.00;;;4.17;;
64887;SDS011;51386;53.082;8.816;2023-03-14T02:37:23;8.70;;;4.83;;
64887;SDS011;51386;53.082;8.816;2023-03-14T02:40:05;9.77;;;4.33;;
64887;SDS011;51386;53.082;8.816;2023-03-14T02:42:35;6.90;;;4.03;;
64887;SDS011;51386;53.082;8.816;2023-03-14T02:48:07;6.97;;;4.07;;
64887;SDS011;51386;53.082;8.816;2023-03-14T02:50:41;7.03;;;3.47;;
64887;SDS011;51386;53.082;8.816;2023-03-14T02:53:11;8.87;;;4.13;;
64887;SDS011;51386;53.082;8.816;2023-03-14T02:55:44;4.20;;;3.13;;
64887;SDS011;51386;53.082;8.816;2023-03-14T02:58:14;5.57;;;3.60;;
64887;SDS011;51386;53.082;8.816;2023-03-14T03:00:41;6.30;;;3.30;;
64887;SDS011;51386;53.082;8.816;2023-03-14T03:03:08;11.40;;;3.67;;
64887;SDS011;51386;53.082;8.816;2023-03-14T03:05:35;7.00;;;3.57;;
64887;SDS011;51386;53.082;8.816;2023-03-14T03:08:02;5.37;;;3.17;;
64887;SDS011;51386;53.082;8.816;2023-03-14T03:10:30;4.83;;;3.03;;
64887;SDS011;51386;53.082;8.816;2023-03-14T03:12:58;6.07;;;3.23;;
64887;SDS011;51386;53.082;8.816;2023-03-14T03:15:26;5.07;;;3.03;;
64887;SDS011;51386;53.082;8.816;2023-03-14T03:17:54;8.33;;;3.57;;
64887;SDS011;51386;53.082;8.816;2023-03-14T03:20:21;6.50;;;3.00;;
64887;SDS011;51386;53.082;8.816;2023-03-14T03:22:48;6.87;;;3.00;;
64887;SDS011;51386;53.082;8.816;2023-03-14T03:25:16;6.00;;;2.97;;
64887;SDS011;51386;53.082;8.816;2023-03-14T03:27:43;8.90;;;3.47;;
64887;SDS011;51386;53.082;8.816;2023-03-14T03:30:10;8.87;;;3.70;;
64887;SDS011;51386;53.082;8.816;2023-03-14T03:32:39;6.70;;;3.07;;
64887;SDS011;51386;53.082;8.816;2023-03-14T03:35:07;6.07;;;3.47;;
64887;SDS011;51386;53.082;8.816;2023-03-14T03:37:35;7.20;;;3.13;;
64887;SDS011;51386;53.082;8.816;2023-03-14T03:40:03;5.37;;;2.90;;
64887;SDS011;51386;53.082;8.816;2023-03-14T03:42:32;8.43;;;3.90;;
64887;SDS011;51386;53.082;8.816;2023-03-14T03:45:02;4.27;;;3.07;;
64887;SDS011;51386;53.082;8.816;2023-03-14T03:47:30;7.17;;;3.33;;
64887;SDS011;51386;53.082;8.816;2023-03-14T03:49:59;7.27;;;3.00;;
64887;SDS011;51386;53.082;8.816;2023-03-14T03:52:26;4.40;;;3.10;;
64887;SDS011;51386;53.082;8.816;2023-03-14T03:54:53;6.73;;;3.27;;
64887;SDS011;51386;53.082;8.816;2023-03-14T03:57:19;6.73;;;3.67;;
64887;SDS011;51386;53.082;8.816;2023-03-14T03:59:46;5.43;;;3.00;;
64887;SDS011;51386;53.082;8.816;2023-03-14T04:02:13;3.97;;;3.07;;
64887;SDS011;51386;53.082;8.816;2023-03-14T04:04:41;5.03;;;3.20;;
64887;SDS011;51386;53.082;8.816;2023-03-14T04:07:09;3.77;;;2.87;;
64887;SDS011;51386;53.082;8.816;2023-03-14T04:09:37;4.03;;;2.60;;
64887;SDS011;51386;53.082;8.816;2023-03-14T04:12:04;5.97;;;3.27;;
64887;SDS011;51386;53.082;8.816;2023-03-14T04:14:31;9.00;;;3.43;;
64887;SDS011;51386;53.082;8.816;2023-03-14T04:16:58;5.30;;;2.90;;
64887;SDS011;51386;53.082;8.816;2023-03-14T04:19:25;6.47;;;3.17;;
64887;SDS011;51386;53.082;8.816;2023-03-14T04:21:52;5.93;;;3.10;;
64887;SDS011;51386;53.082;8.816;2023-03-14T04:24:20;7.93;;;3.87;;
64887;SDS011;51386;53.082;8.816;2023-03-14T04:26:47;5.90;;;3.00;;
64887;SDS011;51386;53.082;8.816;2023-03-14T04:29:14;4.43;;;3.33;;
64887;SDS011;51386;53.082;8.816;2023-03-14T04:31:47;3.97;;;2.60;;
64887;SDS011;51386;53.082;8.816;2023-03-14T04:34:14;5.03;;;3.20;;
64887;SDS011;51386;53.082;8.816;2023-03-14T04:36:41;6.47;;;3.03;;
64887;SDS011;51386;53.082;8.816;2023-03-14T04:39:11;6.27;;;2.93;;
64887;SDS011;51386;53.082;8.816;2023-03-14T04:41:42;6.17;;;3.53;;
64887;SDS011;51386;53.082;8.816;2023-03-14T04:44:11;5.10;;;3.20;;
64887;SDS011;51386;53.082;8.816;2023-03-14T04:46:38;5.20;;;3.13;;
64887;SDS011;51386;53.082;8.816;2023-03-14T04:49:05;4.83;;;2.93;;
64887;SDS011;51386;53.082;8.816;2023-03-14T04:51:32;3.87;;;3.07;;
64887;SDS011;51386;53.082;8.816;2023-03-14T04:53:59;3.90;;;2.67;;
64887;SDS011;51386;53.082;8.816;2023-03-14T04:56:26;6.60;;;3.23;;
64887;SDS011;51386;53.082;8.816;2023-03-14T04:58:55;7.30;;;3.30;;
64887;SDS011;51386;53.082;8.816;2023-03-14T05:01:22;6.23;;;3.30;;
64887;SDS011;51386;53.082;8.816;2023-03-14T05:03:49;6.73;;;3.07;;
64887;SDS011;51386;53.082;8.816;2023-03-14T05:06:16;5.73;;;3.13;;
64887;SDS011;51386;53.082;8.816;2023-03-14T05:08:43;3.63;;;2.33;;
64887;SDS011;51386;53.082;8.816;2023-03-14T05:11:11;6.60;;;2.83;;
64887;SDS011;51386;53.082;8.816;2023-03-14T05:13:39;3.97;;;2.40;;
64887;SDS011;51386;53.082;8.816;2023-03-14T05:16:08;3.50;;;2.40;;
64887;SDS011;51386;53.082;8.816;2023-03-14T05:18:37;8.60;;;2.40;;
64887;SDS011;51386;53.082;8.816;2023-03-14T05:21:05;5.10;;;2.60;;
64887;SDS011;51386;53.082;8.816;2023-03-14T05:23:32;7.83;;;2.43;;
64887;SDS011;51386;53.082;8.816;2023-03-14T05:25:59;6.27;;;2.43;;
64887;SDS011;51386;53.082;8.816;2023-03-14T05:28:26;6.03;;;1.80;;
64887;SDS011;51386;53.082;8.816;2023-03-14T05:30:53;4.67;;;1.90;;
64887;SDS011;51386;53.082;8.816;2023-03-14T05:33:21;5.13;;;2.13;;
64887;SDS011;51386;53.082;8.816;2023-03-14T05:35:48;5.73;;;2.10;;
64887;SDS011;51386;53.082;8.816;2023-03-14T05:38:15;2.97;;;1.80;;
64887;SDS011;51386;53.082;8.816;2023-03-14T05:40:42;4.60;;;2.00;;
64887;SDS011;51386;53.082;8.816;2023-03-14T05:43:11;5.67;;;2.00;;
64887;SDS011;51386;53.082;8.816;2023-03-14T05:45:38;4.87;;;1.70;;
64887;SDS011;51386;53.082;8.816;2023-03-14T05:48:05;5.63;;;1.90;;
64887;SDS011;51386;53.082;8.816;2023-03-14T05:50:33;3.63;;;2.00;;
64887;SDS011;51386;53.082;8.816;2023-03-14T05:53:00;7.60;;;2.03;;
64887;SDS011;51386;53.082;8.816;2023-03-14T05:55:27;5.50;;;2.47;;
64887;SDS011;51386;53.082;8.816;2023-03-14T05:57:54;5.53;;;1.90;;
64887;SDS011;51386;53.082;8.816;2023-03-14T06:00:21;4.97;;;1.67;;
64887;SDS011;51386;53.082;8.816;2023-03-14T06:02:48;5.90;;;2.10;;
64887;SDS011;51386;53.082;8.816;2023-03-14T06:05:16;4.10;;;1.83;;
64887;SDS011;51386;53.082;8.816;2023-03-14T06:07:44;6.70;;;2.00;;
64887;SDS011;51386;53.082;8.816;2023-03-14T06:10:11;3.87;;;1.57;;
64887;SDS011;51386;53.082;8.816;2023-03-14T06:12:38;3.83;;;1.63;;
64887;SDS011;51386;53.082;8.816;2023-03-14T06:15:05;5.33;;;1.50;;
64887;SDS011;51386;53.082;8.816;2023-03-14T06:17:34;3.90;;;1.30;;
64887;SDS011;51386;53.082;8.816;2023-03-14T06:20:01;3.63;;;1.30;;
64887;SDS011;51386;53.082;8.816;2023-03-14T06:22:28;3.00;;;1.40;;
64887;SDS011;51386;53.082;8.816;2023-03-14T06:24:56;2.40;;;1.20;;
64887;SDS011;51386;53.082;8.816;2023-03-14T06:27:23;1.87;;;1.20;;
64887;SDS011;51386;53.082;8.816;2023-03-14T06:29:50;4.10;;;1.60;;
64887;SDS011;51386;53.082;8.816;2023-03-14T06:32:17;2.03;;;1.10;;
64887;SDS011;51386;53.082;8.816;2023-03-14T06:34:44;5.07;;;1.50;;
64887;SDS011;51386;53.082;8.816;2023-03-14T06:37:11;3.43;;;1.43;;
64887;SDS011;51386;53.082;8.816;2023-03-14T06:39:39;3.67;;;1.50;;
64887;SDS011;51386;53.082;8.816;2023-03-14T06:42:07;3.20;;;1.97;;
64887;SDS011;51386;53.082;8.816;2023-03-14T06:44:34;2.87;;;1.47;;
64887;SDS011;51386;53.082;8.816;2023-03-14T06:47:01;4.87;;;1.43;;
64887;SDS011;51386;53.082;8.816;2023-03-14T06:49:28;3.97;;;1.30;;
64887;SDS011;51386;53.082;8.816;2023-03-14T06:51:55;2.33;;;1.47;;
64887;SDS011;51386;53.082;8.816;2023-03-14T06:54:22;4.23;;;1.57;;
64887;SDS011;51386;53.082;8.816;2023-03-14T06:56:49;1.83;;;1.17;;
64887;SDS011;51386;53.082;8.816;2023-03-14T06:59:17;4.53;;;1.80;;
64887;SDS011;51386;53.082;8.816;2023-03-14T07:01:44;3.07;;;1.77;;
64887;SDS011;51386;53.082;8.816;2023-03-14T07:04:11;6.33;;;1.60;;
64887;SDS011;51386;53.082;8.816;2023-03-14T07:06:38;3.00;;;1.40;;
64887;SDS011;51386;53.082;8.816;2023-03-14T07:09:10;3.27;;;2.10;;
64887;SDS011;51386;53.082;8.816;2023-03-14T07:11:37;3.90;;;1.50;;
64887;SDS011;51386;53.082;8.816;2023-03-14T07:14:04;4.33;;;2.00;;
64887;SDS011;51386;53.082;8.816;2023-03-14T07:16:33;6.43;;;2.10;;
64887;SDS011;51386;53.082;8.816;2023-03-14T07:19:00;8.67;;;2.50;;
64887;SDS011;51386;53.082;8.816;2023-03-14T07:21:28;4.73;;;2.40;;
64887;SDS011;51386;53.082;8.816;2023-03-14T07:23:56;6.80;;;2.50;;
64887;SDS011;51386;53.082;8.816;2023-03-14T07:26:23;5.73;;;2.43;;
64887;SDS011;51386;53.082;8.816;2023-03-14T07:28:50;7.83;;;2.47;;
64887;SDS011;51386;53.082;8.816;2023-03-14T07:31:17;4.83;;;2.50;;
64887;SDS011;51386;53.082;8.816;2023-03-14T07:33:45;4.50;;;2.03;;
64887;SDS011;51386;53.082;8.816;2023-03-14T07:36:12;5.83;;;2.40;;
64887;SDS011;51386;53.082;8.816;2023-03-14T07:38:39;5.10;;;1.90;;
64887;SDS011;51386;53.082;8.816;2023-03-14T07:41:06;6.90;;;2.40;;
64887;SDS011;51386;53.082;8.816;2023-03-14T07:43:33;5.70;;;2.20;;
64887;SDS011;51386;53.082;8.816;2023-03-14T07:46:01;4.10;;;2.27;;
64887;SDS011;51386;53.082;8.816;2023-03-14T07:48:28;4.83;;;2.50;;
64887;SDS011;51386;53.082;8.816;2023-03-14T07:50:57;7.70;;;2.10;;
64887;SDS011;51386;53.082;8.816;2023-03-14T07:53:24;6.53;;;2.27;;
64887;SDS011;51386;53.082;8.816;2023-03-14T07:55:51;5.33;;;2.27;;
64887;SDS011;51386;53.082;8.816;2023-03-14T07:58:19;6.67;;;2.10;;
64887;SDS011;51386;53.082;8.816;2023-03-14T08:00:48;4.00;;;1.80;;
64887;SDS011;51386;53.082;8.816;2023-03-14T08:03:15;4.70;;;1.93;;
64887;SDS011;51386;53.082;8.816;2023-03-14T08:05:43;5.20;;;2.30;;
64887;SDS011;51386;53.082;8.816;2023-03-14T08:08:14;5.87;;;2.37;;
64887;SDS011;51386;53.082;8.816;2023-03-14T08:10:41;5.40;;;2.00;;
64887;SDS011;51386;53.082;8.816;2023-03-14T08:13:08;8.57;;;2.30;;
64887;SDS011;51386;53.082;8.816;2023-03-14T08:15:36;4.37;;;1.97;;
64887;SDS011;51386;53.082;8.816;2023-03-14T08:18:03;4.77;;;2.20;;
64887;SDS011;51386;53.082;8.816;2023-03-14T08:20:31;4.73;;;2.10;;
64887;SDS011;51386;53.082;8.816;2023-03-14T08:22:59;3.27;;;1.57;;
64887;SDS011;51386;53.082;8.816;2023-03-14T08:25:28;5.67;;;2.20;;
64887;SDS011;51386;53.082;8.816;2023-03-14T08:27:55;7.57;;;2.67;;
64887;SDS011;51386;53.082;8.816;2023-03-14T08:30:23;2.80;;;1.80;;
64887;SDS011;51386;53.082;8.816;2023-03-14T08:32:51;3.73;;;2.10;;
64887;SDS011;51386;53.082;8.816;2023-03-14T08:35:18;6.40;;;2.50;;
64887;SDS011;51386;53.082;8.816;2023-03-14T08:37:46;6.70;;;1.90;;
64887;SDS011;51386;53.082;8.816;2023-03-14T08:40:13;4.70;;;2.30;;
64887;SDS011;51386;53.082;8.816;2023-03-14T08:42:43;6.33;;;2.00;;
64887;SDS011;51386;53.082;8.816;2023-03-14T08:45:11;6.97;;;2.40;;
64887;SDS011;51386;53.082;8.816;2023-03-14T08:47:42;7.93;;;2.90;;
64887;SDS011;51386;53.082;8.816;2023-03-14T08:50:10;7.30;;;2.13;;
64887;SDS011;51386;53.082;8.816;2023-03-14T08:52:41;2.33;;;1.50;;
64887;SDS011;51386;53.082;8.816;2023-03-14T08:55:09;5.20;;;2.00;;
64887;SDS011;51386;53.082;8.816;2023-03-14T08:57:37;6.23;;;2.13;;
64887;SDS011;51386;53.082;8.816;2023-03-14T09:00:07;4.37;;;2.00;;
64887;SDS011;51386;53.082;8.816;2023-03-14T09:02:38;5.73;;;1.60;;
64887;SDS011;51386;53.082;8.816;2023-03-14T09:05:05;3.90;;;1.43;;
64887;SDS011;51386;53.082;8.816;2023-03-14T09:07:34;4.20;;;1.93;;
64887;SDS011;51386;53.082;8.816;2023-03-14T09:10:01;2.93;;;1.93;;
64887;SDS011;51386;53.082;8.816;2023-03-14T09:12:28;5.57;;;1.60;;
64887;SDS011;51386;53.082;8.816;2023-03-14T09:14:56;3.93;;;2.00;;
64887;SDS011;51386;53.082;8.816;2023-03-14T09:17:24;7.10;;;1.63;;
64887;SDS011;51386;53.082;8.816;2023-03-14T09:19:52;4.03;;;1.53;;
64887;SDS011;51386;53.082;8.816;2023-03-14T09:22:19;4.33;;;1.50;;
64887;SDS011;51386;53.082;8.816;2023-03-14T09:24:46;3.53;;;1.43;;
64887;SDS011;51386;53.082;8.816;2023-03-14T09:27:13;5.17;;;2.90;;
64887;SDS011;51386;53.082;8.816;2023-03-14T09:29:40;4.33;;;1.97;;
64887;SDS011;51386;53.082;8.816;2023-03-14T09:32:07;4.17;;;2.67;;
64887;SDS011;51386;53.082;8.816;2023-03-14T09:34:36;3.73;;;1.50;;
64887;SDS011;51386;53.082;8.816;2023-03-14T09:37:03;3.87;;;2.30;;
64887;SDS011;51386;53.082;8.816;2023-03-14T09:39:30;3.50;;;1.60;;
64887;SDS011;51386;53.082;8.816;2023-03-14T09:41:57;4.80;;;2.90;;
64887;SDS011;51386;53.082;8.816;2023-03-14T09:44:32;4.73;;;1.70;;
64887;SDS011;51386;53.082;8.816;2023-03-14T09:47:05;4.93;;;3.77;;
64887;SDS011;51386;53.082;8.816;2023-03-14T09:49:39;3.10;;;1.60;;
64887;SDS011;51386;53.082;8.816;2023-03-14T09:52:10;2.67;;;2.10;;
64887;SDS011;51386;53.082;8.816;2023-03-14T09:54:42;2.30;;;1.40;;
64887;SDS011;51386;53.082;8.816;2023-03-14T09:57:15;1.27;;;1.00;;
64887;SDS011;51386;53.082;8.816;2023-03-14T09:59:45;1.47;;;1.00;;
64887;SDS011;51386;53.082;8.816;2023-03-14T10:02:17;1.90;;;1.33;;
64887;SDS011;51386;53.082;8.816;2023-03-14T10:04:48;3.17;;;1.97;;
64887;SDS011;51386;53.082;8.816;2023-03-14T10:07:19;3.23;;;2.40;;
64887;SDS011;51386;53.082;8.816;2023-03-14T10:09:54;4.67;;;3.13;;
64887;SDS011;51386;53.082;8.816;2023-03-14T10:12:30;2.57;;;2.37;;
64887;SDS011;51386;53.082;8.816;2023-03-14T10:15:00;2.67;;;1.77;;
64887;SDS011;51386;53.082;8.816;2023-03-14T10:17:37;4.17;;;3.77;;
64887;SDS011;51386;53.082;8.816;2023-03-14T10:20:15;2.80;;;1.97;;
64887;SDS011;51386;53.082;8.816;2023-03-14T10:22:59;1.00;;;0.90;;
64887;SDS011;51386;53.082;8.816;2023-03-14T10:25:30;3.00;;;2.70;;
64887;SDS011;51386;53.082;8.816;2023-03-14T10:27:59;2.30;;;2.10;;
64887;SDS011;51386;53.082;8.816;2023-03-14T10:30:33;2.90;;;2.70;;
64887;SDS011;51386;53.082;8.816;2023-03-14T10:33:10;2.93;;;2.20;;
64887;SDS011;51386;53.082;8.816;2023-03-14T10:35:51;2.83;;;2.53;;
64887;SDS011;51386;53.082;8.816;2023-03-14T10:38:22;2.97;;;2.67;;
64887;SDS011;51386;53.082;8.816;2023-03-14T10:40:53;4.23;;;2.17;;
64887;SDS011;51386;53.082;8.816;2023-03-14T10:43:22;2.87;;;2.50;;
64887;SDS011;51386;53.082;8.816;2023-03-14T10:45:54;2.20;;;1.90;;
64887;SDS011;51386;53.082;8.816;2023-03-14T10:48:29;3.20;;;1.50;;
64887;SDS011;51386;53.082;8.816;2023-03-14T10:51:03;1.33;;;1.07;;
64887;SDS011;51386;53.082;8.816;2023-03-14T10:53:34;1.40;;;1.30;;
64887;SDS011;51386;53.082;8.816;2023-03-14T10:56:11;2.40;;;1.20;;
64887;SDS011;51386;53.082;8.816;2023-03-14T10:58:41;3.20;;;2.37;;
64887;SDS011;51386;53.082;8.816;2023-03-14T11:04:12;2.30;;;1.20;;
64887;SDS011;51386;53.082;8.816;2023-03-14T11:06:55;2.10;;;1.20;;
64887;SDS011;51386;53.082;8.816;2023-03-14T11:09:33;2.93;;;1.20;;
64887;SDS011;51386;53.082;8.816;2023-03-14T11:12:12;1.87;;;1.33;;
64887;SDS011;51386;53.082;8.816;2023-03-14T11:15:02;3.93;;;1.90;;
64887;SDS011;51386;53.082;8.816;2023-03-14T11:17:44;4.07;;;1.77;;
64887;SDS011;51386;53.082;8.816;2023-03-14T11:20:31;3.80;;;1.50;;
64887;SDS011;51386;53.082;8.816;2023-03-14T11:23:12;7.80;;;3.60;;
64887;SDS011;51386;53.082;8.816;2023-03-14T11:25:47;4.37;;;3.33;;
64887;SDS011;51386;53.082;8.816;2023-03-14T11:28:26;6.37;;;4.13;;
64887;SDS011;51386;53.082;8.816;2023-03-14T11:31:04;5.83;;;3.53;;
64887;SDS011;51386;53.082;8.816;2023-03-14T11:33:45;4.20;;;1.90;;
64887;SDS011;51386;53.082;8.816;2023-03-14T11:36:27;4.40;;;2.00;;
64887;SDS011;51386;53.082;8.816;2023-03-14T11:39:07;3.73;;;2.50;;
64887;SDS011;51386;53.082;8.816;2023-03-14T11:41:42;6.47;;;2.47;;
64887;SDS011;51386;53.082;8.816;2023-03-14T11:44:14;4.67;;;2.90;;
64887;SDS011;51386;53.082;8.816;2023-03-14T11:46:47;4.57;;;2.83;;
64887;SDS011;51386;53.082;8.816;2023-03-14T11:49:24;7.40;;;2.90;;
64887;SDS011;51386;53.082;8.816;2023-03-14T11:52:05;5.87;;;2.70;;
64887;SDS011;51386;53.082;8.816;2023-03-14T11:54:41;9.70;;;2.93;;
64887;SDS011;51386;53.082;8.816;2023-03-14T11:57:17;9.70;;;2.13;;
64887;SDS011;51386;53.082;8.816;2023-03-14T11:59:48;6.30;;;2.93;;
64887;SDS011;51386;53.082;8.816;2023-03-14T12:02:22;9.63;;;2.27;;
64887;SDS011;51386;53.082;8.816;2023-03-14T12:05:07;8.33;;;2.77;;
64887;SDS011;51386;53.082;8.816;2023-03-14T12:08:04;6.87;;;2.40;;
64887;SDS011;51386;53.082;8.816;2023-03-14T12:10:58;5.90;;;2.03;;
64887;SDS011;51386;53.082;8.816;2023-03-14T12:13:29;9.27;;;2.43;;
64887;SDS011;51386;53.082;8.816;2023-03-14T12:16:04;8.20;;;2.50;;
64887;SDS011;51386;53.082;8.816;2023-03-14T12:18:34;10.53;;;3.60;;
64887;SDS011;51386;53.082;8.816;2023-03-14T12:21:09;9.30;;;3.90;;
64887;SDS011;51386;53.082;8.816;2023-03-14T12:23:41;12.33;;;3.30;;
64887;SDS011;51386;53.082;8.816;2023-03-14T12:26:17;10.70;;;3.30;;
64887;SDS011;51386;53.082;8.816;2023-03-14T12:28:49;10.33;;;4.60;;
64887;SDS011;51386;53.082;8.816;2023-03-14T12:31:35;8.10;;;4.00;;
64887;SDS011;51386;53.082;8.816;2023-03-14T12:34:30;8.17;;;3.30;;
64887;SDS011;51386;53.082;8.816;2023-03-14T12:37:05;11.90;;;3.90;;
64887;SDS011;51386;53.082;8.816;2023-03-14T12:39:45;11.67;;;3.63;;
64887;SDS011;51386;53.082;8.816;2023-03-14T12:42:40;14.63;;;4.17;;
64887;SDS011;51386;53.082;8.816;2023-03-14T12:45:23;10.10;;;3.17;;
64887;SDS011;51386;53.082;8.816;2023-03-14T12:48:06;14.27;;;4.00;;
64887;SDS011;51386;53.082;8.816;2023-03-14T12:50:40;9.93;;;4.00;;
64887;SDS011;51386;53.082;8.816;2023-03-14T12:56:24;10.23;;;3.30;;
64887;SDS011;51386;53.082;8.816;2023-03-14T12:59:20;8.57;;;3.93;;
64887;SDS011;51386;53.082;8.816;2023-03-14T13:02:01;11.17;;;3.70;;
64887;SDS011;51386;53.082;8.816;2023-03-14T13:04:47;9.47;;;4.37;;
64887;SDS011;51386;53.082;8.816;2023-03-14T13:07:28;13.60;;;4.53;;
64887;SDS011;51386;53.082;8.816;2023-03-14T13:10:30;8.43;;;3.30;;
64887;SDS011;51386;53.082;8.816;2023-03-14T13:13:14;10.83;;;4.70;;
64887;SDS011;51386;53.082;8.816;2023-03-14T13:15:48;10.67;;;3.60;;
64887;SDS011;51386;53.082;8.816;2023-03-14T13:18:26;10.10;;;4.73;;
64887;SDS011;51386;53.082;8.816;2023-03-14T13:21:01;12.00;;;3.63;;
64887;SDS011;51386;53.082;8.816;2023-03-14T13:23:34;8.07;;;2.40;;
64887;SDS011;51386;53.082;8.816;2023-03-14T13:26:06;9.93;;;3.03;;
64887;SDS011;51386;53.082;8.816;2023-03-14T13:28:40;6.93;;;3.03;;
64887;SDS011;51386;53.082;8.816;2023-03-14T13:31:17;8.50;;;3.37;;
64887;SDS011;51386;53.082;8.816;2023-03-14T13:33:56;8.23;;;2.30;;
64887;SDS011;51386;53.082;8.816;2023-03-14T13:36:25;5.47;;;2.43;;
64887;SDS011;51386;53.082;8.816;2023-03-14T13:38:57;7.67;;;3.03;;
64887;SDS011;51386;53.082;8.816;2023-03-14T13:41:28;14.70;;;4.37;;
64887;SDS011;51386;53.082;8.816;2023-03-14T13:43:57;6.43;;;2.50;;
64887;SDS011;51386;53.082;8.816;2023-03-14T13:46:31;5.73;;;2.90;;
64887;SDS011;51386;53.082;8.816;2023-03-14T13:49:03;7.03;;;3.20;;
64887;SDS011;51386;53.082;8.816;2023-03-14T13:51:36;9.17;;;2.87;;
64887;SDS011;51386;53.082;8.816;2023-03-14T13:54:13;10.40;;;3.57;;
64887;SDS011;51386;53.082;8.816;2023-03-14T13:56:42;5.60;;;2.43;;
64887;SDS011;51386;53.082;8.816;2023-03-14T13:59:20;9.87;;;2.77;;
64887;SDS011;51386;53.082;8.816;2023-03-14T14:01:50;6.10;;;2.38;;
64887;SDS011;51386;53.082;8.816;2023-03-14T14:04:19;8.20;;;2.53;;
64887;SDS011;51386;53.082;8.816;2023-03-14T14:06:52;5.37;;;2.20;;
64887;SDS011;51386;53.082;8.816;2023-03-14T14:09:24;3.47;;;2.00;;
64887;SDS011;51386;53.082;8.816;2023-03-14T14:11:55;8.20;;;2.40;;
64887;SDS011;51386;53.082;8.816;2023-03-14T14:14:42;5.73;;;1.80;;
64887;SDS011;51386;53.082;8.816;2023-03-14T14:17:19;5.63;;;2.27;;
64887;SDS011;51386;53.082;8.816;2023-03-14T14:19:52;6.60;;;2.33;;
64887;SDS011;51386;53.082;8.816;2023-03-14T14:22:22;8.63;;;3.10;;
64887;SDS011;51386;53.082;8.816;2023-03-14T14:24:50;6.97;;;2.73;;
64887;SDS011;51386;53.082;8.816;2023-03-14T14:27:18;4.90;;;2.00;;
64887;SDS011;51386;53.082;8.816;2023-03-14T14:29:59;4.23;;;2.17;;
64887;SDS011;51386;53.082;8.816;2023-03-14T14:32:35;6.23;;;1.90;;
64887;SDS011;51386;53.082;8.816;2023-03-14T14:35:04;9.37;;;3.40;;
64887;SDS011;51386;53.082;8.816;2023-03-14T14:37:33;3.77;;;1.83;;
64887;SDS011;51386;53.082;8.816;2023-03-14T14:40:07;8.40;;;2.77;;
64887;SDS011;51386;53.082;8.816;2023-03-14T14:42:42;7.47;;;2.97;;
64887;SDS011;51386;53.082;8.816;2023-03-14T14:45:11;6.53;;;2.37;;
64887;SDS011;51386;53.082;8.816;2023-03-14T14:47:51;6.43;;;3.43;;
64887;SDS011;51386;53.082;8.816;2023-03-14T14:50:25;7.20;;;2.90;;
64887;SDS011;51386;53.082;8.816;2023-03-14T14:52:56;5.83;;;2.30;;
64887;SDS011;51386;53.082;8.816;2023-03-14T14:55:28;7.27;;;2.47;;
64887;SDS011;51386;53.082;8.816;2023-03-14T14:58:11;5.70;;;2.37;;
64887;SDS011;51386;53.082;8.816;2023-03-14T15:00:50;8.30;;;2.30;;
64887;SDS011;51386;53.082;8.816;2023-03-14T15:03:23;7.07;;;2.33;;
64887;SDS011;51386;53.082;8.816;2023-03-14T15:05:55;7.50;;;2.73;;
64887;SDS011;51386;53.082;8.816;2023-03-14T15:08:24;7.23;;;2.27;;
64887;SDS011;51386;53.082;8.816;2023-03-14T15:10:53;5.33;;;1.97;;
64887;SDS011;51386;53.082;8.816;2023-03-14T15:13:20;8.40;;;2.20;;
64887;SDS011;51386;53.082;8.816;2023-03-14T15:15:47;5.80;;;1.97;;
64887;SDS011;51386;53.082;8.816;2023-03-14T15:18:24;3.80;;;1.60;;
64887;SDS011;51386;53.082;8.816;2023-03-14T15:20:56;9.40;;;1.83;;
64887;SDS011;51386;53.082;8.816;2023-03-14T15:23:23;5.60;;;1.80;;